createdAt,value
2022-10-05T00:00:13.250Z,0.60
2022-10-05T00:02:40.938Z,0.80
2022-10-05T00:05:18.641Z,0.70
2022-10-05T00:07:46.294Z,0.67
2022-10-05T00:10:15.540Z,0.70
2022-10-05T00:12:44.994Z,0.50
2022-10-05T00:15:13.781Z,0.60
2022-10-05T00:17:42.388Z,0.47
2022-10-05T00:20:17.213Z,0.53
2022-10-05T00:22:44.711Z,0.63
2022-10-05T00:25:13.570Z,0.60
2022-10-05T00:27:41.278Z,0.57
2022-10-05T00:30:14.098Z,0.70
2022-10-05T00:32:43.838Z,0.60
2022-10-05T00:35:12.417Z,0.67
2022-10-05T00:37:41.806Z,0.60
2022-10-05T00:40:15.608Z,0.70
2022-10-05T00:42:48.114Z,0.60
2022-10-05T00:45:18.727Z,0.90
2022-10-05T00:47:54.398Z,0.50
2022-10-05T00:50:36.748Z,0.60
2022-10-05T00:53:12.618Z,0.57
2022-10-05T00:55:45.266Z,0.70
2022-10-05T00:58:15.630Z,0.47
2022-10-05T01:00:47.362Z,0.50
2022-10-05T01:03:19.769Z,0.50
2022-10-05T01:05:54.978Z,0.60
2022-10-05T01:08:29.648Z,0.40
2022-10-05T01:11:01.065Z,0.50
2022-10-05T01:13:33.051Z,0.47
2022-10-05T01:19:48.900Z,0.30
2022-10-05T01:22:24.003Z,0.40
2022-10-05T01:24:58.850Z,0.50
2022-10-05T01:27:41.361Z,0.40
2022-10-05T01:30:12.947Z,0.53
2022-10-05T01:32:43.809Z,0.63
2022-10-05T01:35:18.705Z,0.50
2022-10-05T01:37:50.148Z,0.50
2022-10-05T01:40:21.365Z,0.37
2022-10-05T01:42:55.766Z,0.30
2022-10-05T01:45:27.447Z,0.40
2022-10-05T01:47:58.663Z,0.50
2022-10-05T01:50:29.650Z,0.40
2022-10-05T01:53:02.354Z,0.50
2022-10-05T01:55:33.028Z,0.50
2022-10-05T01:58:08.384Z,0.60
2022-10-05T02:00:38.526Z,0.40
2022-10-05T02:03:09.137Z,0.50
2022-10-05T02:05:40.157Z,0.40
2022-10-05T02:08:12.010Z,0.40
2022-10-05T02:10:42.850Z,0.50
2022-10-05T02:13:14.503Z,0.50
2022-10-05T02:15:45.023Z,0.57
2022-10-05T02:18:15.347Z,0.47
2022-10-05T02:20:44.828Z,0.60
2022-10-05T02:23:14.310Z,0.40
2022-10-05T02:25:43.773Z,0.50
2022-10-05T02:28:15.062Z,0.60
2022-10-05T02:30:45.242Z,0.60
2022-10-05T02:33:16.145Z,0.20
2022-10-05T02:35:43.699Z,0.50
2022-10-05T02:38:14.635Z,0.50
2022-10-05T02:40:49.499Z,0.60
2022-10-05T02:43:25.693Z,0.50
2022-10-05T02:45:56.152Z,0.40
2022-10-05T02:48:29.758Z,0.20
2022-10-05T02:51:00.935Z,0.47
2022-10-05T02:53:32.548Z,0.30
2022-10-05T02:56:06.175Z,0.63
2022-10-05T02:58:37.257Z,0.40
2022-10-05T03:01:08.398Z,0.60
2022-10-05T03:03:38.796Z,0.60
2022-10-05T03:06:10.138Z,0.60
2022-10-05T03:08:43.296Z,0.30
2022-10-05T03:11:15.694Z,0.60
2022-10-05T03:13:48.874Z,0.43
2022-10-05T03:16:24.683Z,0.60
2022-10-05T03:18:57.111Z,0.57
2022-10-05T03:21:31.589Z,0.50
2022-10-05T03:24:07.443Z,0.60
2022-10-05T03:26:38.586Z,0.43
2022-10-05T03:29:11.071Z,0.80
2022-10-05T03:31:42.557Z,0.70
2022-10-05T03:34:13.208Z,0.40
2022-10-05T03:36:47.147Z,0.57
2022-10-05T03:39:19.154Z,0.40
2022-10-05T03:41:48.791Z,0.40
2022-10-05T03:44:23.055Z,0.60
2022-10-05T03:46:55.763Z,0.50
2022-10-05T03:49:29.027Z,0.50
2022-10-05T03:52:00.266Z,0.50
2022-10-05T03:54:29.944Z,0.50
2022-10-05T03:56:59.285Z,0.50
2022-10-05T03:59:32.747Z,0.40
2022-10-05T04:02:03.166Z,0.40
2022-10-05T04:04:34.113Z,0.30
2022-10-05T04:07:02.168Z,0.47
2022-10-05T04:09:32.607Z,0.40
2022-10-05T04:12:04.200Z,1.70
2022-10-05T04:14:35.131Z,1.93
2022-10-05T04:17:05.334Z,0.70
2022-10-05T04:19:38.005Z,0.70
2022-10-05T04:22:08.711Z,0.40
2022-10-05T04:24:38.755Z,1.50
2022-10-05T04:27:09.345Z,1.73
2022-10-05T04:29:42.161Z,0.60
2022-10-05T04:32:17.537Z,1.03
2022-10-05T04:34:51.477Z,0.80
2022-10-05T04:37:21.046Z,0.70
2022-10-05T04:39:53.958Z,0.50
2022-10-05T04:42:23.743Z,0.40
2022-10-05T04:45:03.385Z,0.40
2022-10-05T04:47:59.299Z,0.40
2022-10-05T04:50:34.537Z,0.83
2022-10-05T04:53:14.631Z,0.60
2022-10-05T04:55:47.748Z,0.60
2022-10-05T04:58:18.402Z,0.60
2022-10-05T05:00:54.982Z,0.80
2022-10-05T05:03:31.973Z,0.90
2022-10-05T05:06:16.971Z,1.73
2022-10-05T05:09:07.473Z,1.53
2022-10-05T05:11:39.382Z,2.27
2022-10-05T05:14:20.445Z,3.20
2022-10-05T05:16:53.571Z,2.40
2022-10-05T05:19:27.616Z,2.30
2022-10-05T05:22:01.130Z,2.27
2022-10-05T05:24:35.282Z,2.37
2022-10-05T05:27:15.331Z,1.90
2022-10-05T05:29:46.040Z,2.10
2022-10-05T05:32:20.389Z,3.30
2022-10-05T05:34:55.565Z,2.53
2022-10-05T05:37:29.478Z,3.20
2022-10-05T05:40:02.573Z,3.10
2022-10-05T05:42:36.810Z,2.70
2022-10-05T05:45:08.551Z,3.70
2022-10-05T05:47:40.112Z,4.00
2022-10-05T05:50:17.886Z,3.73
2022-10-05T05:52:50.389Z,3.77
2022-10-05T05:55:20.064Z,4.60
2022-10-05T05:57:49.570Z,5.07
2022-10-05T06:00:20.233Z,4.30
2022-10-05T06:02:58.159Z,4.40
2022-10-05T06:05:29.774Z,4.20
2022-10-05T06:08:00.922Z,3.80
2022-10-05T06:10:32.541Z,3.30
2022-10-05T06:13:14.383Z,3.83
2022-10-05T06:15:43.695Z,3.73
2022-10-05T06:18:16.663Z,3.87
2022-10-05T06:20:46.336Z,3.47
2022-10-05T06:23:16.058Z,3.77
2022-10-05T06:25:49.240Z,4.33
2022-10-05T06:28:17.155Z,4.03
2022-10-05T06:30:53.029Z,4.20
2022-10-05T06:33:30.879Z,4.00
2022-10-05T06:36:05.237Z,2.70
2022-10-05T06:38:41.331Z,2.03
2022-10-05T06:41:14.134Z,1.70
2022-10-05T06:43:47.907Z,2.00
2022-10-05T06:46:39.622Z,1.70
2022-10-05T06:49:28.816Z,1.60
2022-10-05T06:52:22.383Z,1.40
2022-10-05T06:54:53.742Z,1.17
2022-10-05T06:57:36.544Z,0.90
2022-10-05T07:00:06.194Z,1.10
2022-10-05T07:02:41.269Z,1.27
2022-10-05T07:05:31.135Z,2.20
2022-10-05T07:08:03.226Z,1.30
2022-10-05T07:10:33.799Z,1.23
2022-10-05T07:13:07.963Z,1.03
2022-10-05T07:15:39.700Z,1.20
2022-10-05T07:18:13.236Z,0.73
2022-10-05T07:20:49.231Z,0.97
2022-10-05T07:23:25.403Z,0.90
2022-10-05T07:25:59.509Z,0.80
2022-10-05T07:28:32.471Z,0.97
2022-10-05T07:31:02.995Z,0.90
2022-10-05T07:33:33.301Z,1.10
2022-10-05T07:36:23.889Z,1.20
2022-10-05T07:38:55.435Z,1.00
2022-10-05T07:41:26.770Z,2.20
2022-10-05T07:44:02.592Z,3.00
2022-10-05T07:46:38.857Z,1.93
2022-10-05T07:49:09.914Z,1.50
2022-10-05T07:51:40.934Z,1.27
2022-10-05T07:54:20.067Z,1.40
2022-10-05T07:56:50.703Z,1.20
2022-10-05T07:59:22.743Z,1.20
2022-10-05T08:01:54.639Z,1.23
2022-10-05T08:04:25.853Z,1.27
2022-10-05T08:06:56.537Z,1.17
2022-10-05T08:09:31.158Z,1.40
2022-10-05T08:12:03.424Z,1.00
2022-10-05T08:14:34.738Z,1.20
2022-10-05T08:17:04.833Z,1.00
2022-10-05T08:19:35.148Z,0.80
2022-10-05T08:22:05.501Z,1.00
2022-10-05T08:24:39.421Z,1.10
2022-10-05T08:27:09.178Z,1.10
2022-10-05T08:29:38.911Z,0.80
2022-10-05T08:32:10.310Z,1.00
2022-10-05T08:34:42.063Z,1.80
2022-10-05T08:37:13.734Z,2.23
2022-10-05T08:39:42.638Z,1.37
2022-10-05T08:42:36.197Z,1.70
2022-10-05T08:45:17.757Z,1.80
2022-10-05T08:47:58.434Z,1.53
2022-10-05T08:50:31.119Z,1.30
2022-10-05T08:53:15.990Z,1.50
2022-10-05T08:55:48.015Z,1.13
2022-10-05T08:58:42.554Z,8.80
2022-10-05T09:01:14.179Z,1.30
2022-10-05T09:03:52.286Z,8.43
2022-10-05T09:06:44.079Z,5.80
2022-10-05T09:09:21.126Z,1.10
2022-10-05T09:11:54.540Z,1.57
2022-10-05T09:14:29.278Z,2.00
2022-10-05T09:17:07.486Z,36.07
2022-10-05T09:19:54.505Z,3.53
2022-10-05T09:22:33.961Z,1.10
2022-10-05T09:25:09.032Z,0.80
2022-10-05T09:27:37.928Z,0.80
2022-10-05T09:30:13.673Z,0.90
2022-10-05T09:32:49.558Z,0.80
2022-10-05T09:35:22.075Z,1.07
2022-10-05T09:38:04.583Z,1.07
2022-10-05T09:40:56.000Z,1.00
2022-10-05T09:43:44.334Z,0.80
2022-10-05T09:46:21.445Z,0.80
2022-10-05T09:48:57.428Z,1.10
2022-10-05T09:51:47.372Z,1.10
2022-10-05T09:54:29.948Z,0.90
2022-10-05T09:57:15.905Z,0.90
2022-10-05T10:00:03.552Z,1.00
2022-10-05T10:02:58.414Z,0.80
2022-10-05T10:05:38.972Z,1.00
2022-10-05T10:08:14.319Z,1.07
2022-10-05T10:10:52.742Z,0.90
2022-10-05T10:13:37.669Z,1.30
2022-10-05T10:16:11.679Z,0.90
2022-10-05T10:18:54.073Z,0.97
2022-10-05T10:21:54.791Z,0.90
2022-10-05T10:24:43.281Z,0.90
2022-10-05T10:27:27.658Z,0.93
2022-10-05T10:30:04.717Z,1.00
2022-10-05T10:32:45.408Z,0.77
2022-10-05T10:35:19.293Z,1.17
2022-10-05T10:38:22.127Z,1.40
2022-10-05T10:41:02.238Z,1.23
2022-10-05T10:43:39.937Z,1.27
2022-10-05T10:46:14.567Z,1.20
2022-10-05T10:48:49.960Z,1.10
2022-10-05T10:51:19.437Z,1.13
2022-10-05T10:54:04.606Z,1.07
2022-10-05T10:56:42.162Z,1.10
2022-10-05T10:59:29.247Z,1.10
2022-10-05T11:02:14.004Z,1.13
2022-10-05T11:04:53.738Z,1.13
2022-10-05T11:07:29.024Z,1.23
2022-10-05T11:10:26.757Z,1.30
2022-10-05T11:13:15.276Z,1.40
2022-10-05T11:16:00.777Z,1.17
2022-10-05T11:18:36.733Z,1.20
2022-10-05T11:21:30.240Z,1.30
2022-10-05T11:24:21.727Z,1.20
2022-10-05T11:26:59.694Z,1.30
2022-10-05T11:29:43.750Z,1.40
2022-10-05T11:32:37.555Z,1.23
2022-10-05T11:35:19.856Z,1.43
2022-10-05T11:37:58.936Z,1.30
2022-10-05T11:40:53.420Z,1.60
2022-10-05T11:43:33.865Z,1.33
2022-10-05T11:46:06.012Z,1.20
2022-10-05T11:48:46.821Z,1.30
2022-10-05T11:51:29.764Z,1.00
2022-10-05T11:54:04.965Z,1.43
2022-10-05T11:56:36.396Z,1.40
2022-10-05T11:59:09.977Z,1.60
2022-10-05T12:01:42.480Z,2.40
2022-10-05T12:04:15.208Z,1.07
2022-10-05T12:06:51.427Z,1.37
2022-10-05T12:09:26.279Z,1.60
2022-10-05T12:12:04.048Z,1.63
2022-10-05T12:14:37.012Z,1.70
2022-10-05T12:17:06.003Z,1.60
2022-10-05T12:19:36.495Z,1.43
2022-10-05T12:22:10.679Z,1.70
2022-10-05T12:24:51.407Z,1.50
2022-10-05T12:27:20.984Z,2.00
2022-10-05T12:29:51.867Z,1.50
2022-10-05T12:32:21.987Z,1.73
2022-10-05T12:35:01.044Z,1.97
2022-10-05T12:37:39.024Z,1.83
2022-10-05T12:40:14.526Z,2.13
2022-10-05T12:42:43.880Z,1.80
2022-10-05T12:45:18.482Z,2.10
2022-10-05T12:47:54.863Z,7.10
2022-10-05T12:50:27.078Z,2.60
2022-10-05T12:53:11.071Z,2.10
2022-10-05T12:55:41.798Z,2.57
2022-10-05T12:58:17.465Z,2.37
2022-10-05T13:00:48.810Z,2.00
2022-10-05T13:03:19.243Z,1.80
2022-10-05T13:05:50.109Z,2.10
2022-10-05T13:08:22.011Z,2.10
2022-10-05T13:10:50.513Z,1.50
2022-10-05T13:13:25.247Z,1.60
2022-10-05T13:15:55.457Z,3.50
2022-10-05T13:18:27.094Z,2.60
2022-10-05T13:20:59.345Z,1.90
2022-10-05T13:23:31.762Z,1.93
2022-10-05T13:26:03.298Z,1.80
2022-10-05T13:28:34.283Z,2.07
2022-10-05T13:31:04.236Z,1.50
2022-10-05T13:33:40.023Z,1.57
2022-10-05T13:36:11.523Z,1.60
2022-10-05T13:38:45.439Z,1.60
2022-10-05T13:41:18.326Z,1.77
2022-10-05T13:43:51.194Z,1.80
2022-10-05T13:46:24.318Z,1.43
2022-10-05T13:48:55.936Z,1.50
2022-10-05T13:51:24.573Z,1.77
2022-10-05T13:54:00.243Z,1.60
2022-10-05T13:56:30.650Z,1.27
2022-10-05T13:59:05.185Z,0.80
2022-10-05T14:01:36.234Z,0.80
2022-10-05T14:04:05.066Z,0.80
2022-10-05T14:06:37.494Z,0.70
2022-10-05T14:09:11.579Z,0.60
2022-10-05T14:11:48.462Z,0.93
2022-10-05T14:14:18.628Z,0.70
2022-10-05T14:16:50.450Z,0.70
2022-10-05T14:19:21.768Z,1.10
2022-10-05T14:21:53.285Z,0.70
2022-10-05T14:24:42.746Z,0.80
2022-10-05T14:27:19.697Z,0.70
2022-10-05T14:29:53.107Z,1.10
2022-10-05T14:32:23.757Z,0.80
2022-10-05T14:34:57.198Z,0.70
2022-10-05T14:37:26.030Z,0.60
2022-10-05T14:39:58.514Z,1.10
2022-10-05T14:42:27.930Z,0.90
2022-10-05T14:44:59.776Z,0.70
2022-10-05T14:47:30.239Z,0.77
2022-10-05T14:50:15.891Z,0.90
2022-10-05T14:52:51.713Z,0.90
2022-10-05T14:55:31.069Z,0.90
2022-10-05T14:58:02.161Z,1.20
2022-10-05T15:00:34.657Z,0.80
2022-10-05T15:03:15.715Z,0.90
2022-10-05T15:05:45.950Z,1.10
2022-10-05T15:08:21.033Z,1.10
2022-10-05T15:10:50.747Z,1.20
2022-10-05T15:13:20.222Z,1.10
2022-10-05T15:15:50.315Z,1.40
2022-10-05T15:18:29.660Z,1.33
2022-10-05T15:21:04.083Z,1.20
2022-10-05T15:23:36.591Z,0.80
2022-10-05T15:26:13.311Z,1.03
2022-10-05T15:28:48.260Z,1.30
2022-10-05T15:31:22.130Z,1.20
2022-10-05T15:33:54.117Z,1.20
2022-10-05T15:36:26.183Z,1.40
2022-10-05T15:39:00.590Z,1.63
2022-10-05T15:41:33.762Z,1.90
2022-10-05T15:44:06.206Z,1.80
2022-10-05T15:46:36.461Z,1.93
2022-10-05T15:49:08.457Z,2.20
2022-10-05T15:51:42.293Z,2.20
2022-10-05T15:54:31.473Z,2.00
2022-10-05T15:57:03.188Z,2.50
2022-10-05T15:59:37.477Z,2.23
2022-10-05T16:02:08.492Z,2.10
2022-10-05T16:04:41.843Z,2.50
2022-10-05T16:07:30.919Z,2.20
2022-10-05T16:10:01.133Z,2.80
2022-10-05T16:12:35.019Z,2.77
2022-10-05T16:15:09.537Z,2.93
2022-10-05T16:17:50.987Z,2.80
2022-10-05T16:20:25.154Z,2.37
2022-10-05T16:22:59.642Z,2.67
2022-10-05T16:25:30.569Z,2.90
2022-10-05T16:28:05.779Z,4.67
2022-10-05T16:30:40.845Z,3.77
2022-10-05T16:33:13.166Z,5.60
2022-10-05T16:35:44.456Z,7.73
2022-10-05T16:38:18.899Z,12.00
2022-10-05T16:40:52.982Z,12.30
2022-10-05T16:43:26.571Z,20.37
2022-10-05T16:45:59.792Z,27.77
2022-10-05T16:48:29.254Z,34.70
2022-10-05T16:51:04.578Z,29.30
2022-10-05T16:53:34.809Z,15.57
2022-10-05T16:56:04.001Z,13.87
2022-10-05T16:58:39.101Z,19.83
2022-10-05T17:01:11.768Z,18.33
2022-10-05T17:03:50.410Z,11.83
2022-10-05T17:06:22.962Z,9.77
2022-10-05T17:09:09.269Z,6.87
2022-10-05T17:11:42.831Z,5.50
2022-10-05T17:14:21.043Z,10.90
2022-10-05T17:16:55.765Z,86.60
2022-10-05T17:19:32.964Z,48.53
2022-10-05T17:22:01.952Z,9.60
2022-10-05T17:24:33.595Z,4.97
2022-10-05T17:27:15.837Z,3.37
2022-10-05T17:29:47.879Z,2.90
2022-10-05T17:32:39.434Z,2.33
2022-10-05T17:35:18.386Z,2.63
2022-10-05T17:38:05.327Z,3.60
2022-10-05T17:40:35.812Z,2.40
2022-10-05T17:43:06.092Z,2.30
2022-10-05T17:45:54.957Z,2.23
2022-10-05T17:48:54.215Z,1.80
2022-10-05T17:51:58.313Z,2.20
2022-10-05T17:54:44.098Z,2.30
2022-10-05T17:57:17.776Z,2.23
2022-10-05T17:59:48.355Z,2.20
2022-10-05T18:02:21.952Z,2.10
2022-10-05T18:04:50.634Z,6.33
2022-10-05T18:07:23.467Z,6.80
2022-10-05T18:09:54.096Z,4.00
2022-10-05T18:12:39.655Z,2.50
2022-10-05T18:15:22.273Z,2.13
2022-10-05T18:17:52.914Z,2.20
2022-10-05T18:20:28.556Z,2.20
2022-10-05T18:23:16.842Z,2.30
2022-10-05T18:25:47.253Z,2.07
2022-10-05T18:28:23.886Z,1.90
2022-10-05T18:31:01.118Z,2.07
2022-10-05T18:33:34.528Z,1.90
2022-10-05T18:36:06.919Z,2.10
2022-10-05T18:38:39.500Z,2.37
2022-10-05T18:41:13.434Z,1.80
2022-10-05T18:43:44.459Z,1.83
2022-10-05T18:46:19.659Z,1.90
2022-10-05T18:48:51.801Z,2.17
2022-10-05T18:51:22.555Z,2.10
2022-10-05T18:53:57.966Z,2.03
2022-10-05T18:56:31.134Z,2.20
2022-10-05T18:59:06.809Z,1.90
2022-10-05T19:01:46.952Z,2.20
2022-10-05T19:04:17.269Z,1.77
2022-10-05T19:06:51.438Z,1.90
2022-10-05T19:09:24.631Z,1.90
2022-10-05T19:11:56.358Z,2.30
2022-10-05T19:14:29.018Z,3.10
2022-10-05T19:17:06.106Z,2.30
2022-10-05T19:19:43.765Z,2.13
2022-10-05T19:22:17.734Z,2.03
2022-10-05T19:24:50.388Z,2.00
2022-10-05T19:27:25.355Z,2.60
2022-10-05T19:30:05.095Z,1.97
2022-10-05T19:32:39.166Z,2.23
2022-10-05T19:35:23.998Z,2.00
2022-10-05T19:37:56.555Z,1.97
2022-10-05T19:40:28.499Z,1.90
2022-10-05T19:43:02.255Z,2.00
2022-10-05T19:45:31.181Z,1.93
2022-10-05T19:48:05.803Z,1.90
2022-10-05T19:50:34.867Z,1.90
2022-10-05T19:53:11.005Z,2.30
2022-10-05T19:55:39.632Z,1.83
2022-10-05T19:58:19.616Z,1.77
2022-10-05T20:00:54.028Z,1.80
2022-10-05T20:03:23.359Z,2.10
2022-10-05T20:05:53.016Z,1.90
2022-10-05T20:08:21.417Z,1.93
2022-10-05T20:11:03.759Z,1.67
2022-10-05T20:13:35.056Z,2.10
2022-10-05T20:16:40.888Z,2.10
2022-10-05T20:19:40.617Z,1.97
2022-10-05T20:22:23.075Z,1.97
2022-10-05T20:24:51.641Z,1.97
2022-10-05T20:27:34.743Z,1.90
2022-10-05T20:30:03.561Z,2.00
2022-10-05T20:32:31.017Z,1.90
2022-10-05T20:34:58.482Z,1.80
2022-10-05T20:37:26.393Z,1.80
2022-10-05T20:39:53.842Z,1.60
2022-10-05T20:42:22.937Z,1.90
2022-10-05T20:44:55.749Z,1.97
2022-10-05T20:47:25.645Z,1.70
2022-10-05T20:49:54.506Z,1.60
2022-10-05T20:52:23.043Z,1.90
2022-10-05T20:54:53.656Z,1.50
2022-10-05T20:57:23.890Z,1.50
2022-10-05T20:59:52.215Z,1.70
2022-10-05T21:02:20.366Z,1.57
2022-10-05T21:04:49.657Z,1.40
2022-10-05T21:07:17.865Z,1.60
2022-10-05T21:09:46.577Z,1.40
2022-10-05T21:12:16.190Z,1.37
2022-10-05T21:14:43.678Z,1.50
2022-10-05T21:17:11.982Z,1.27
2022-10-05T21:19:40.415Z,1.70
2022-10-05T21:22:10.010Z,1.50
2022-10-05T21:24:38.250Z,1.20
2022-10-05T21:27:06.114Z,1.43
2022-10-05T21:29:34.246Z,1.43
2022-10-05T21:32:01.876Z,1.60
2022-10-05T21:34:29.495Z,1.60
2022-10-05T21:36:57.131Z,1.10
2022-10-05T21:39:26.846Z,1.80
2022-10-05T21:41:54.293Z,1.57
2022-10-05T21:44:21.717Z,1.70
2022-10-05T21:46:49.478Z,1.40
2022-10-05T21:49:18.911Z,1.60
2022-10-05T21:51:47.274Z,1.40
2022-10-05T21:54:15.445Z,1.60
2022-10-05T21:56:45.323Z,1.50
2022-10-05T21:59:14.478Z,1.40
2022-10-05T22:01:41.926Z,1.50
2022-10-05T22:04:09.650Z,1.43
2022-10-05T22:06:37.422Z,1.40
2022-10-05T22:09:05.482Z,1.37
2022-10-05T22:11:33.175Z,1.60
2022-10-05T22:14:03.009Z,1.50
2022-10-05T22:16:32.769Z,1.53
2022-10-05T22:19:03.363Z,1.40
2022-10-05T22:21:32.822Z,1.80
2022-10-05T22:24:02.695Z,1.60
2022-10-05T22:26:30.566Z,1.60
2022-10-05T22:28:58.605Z,1.50
2022-10-05T22:31:27.752Z,1.57
2022-10-05T22:33:55.236Z,1.20
2022-10-05T22:36:22.730Z,1.50
2022-10-05T22:38:50.152Z,1.70
2022-10-05T22:41:18.191Z,1.90
2022-10-05T22:43:48.788Z,1.60
2022-10-05T22:46:16.371Z,1.70
2022-10-05T22:48:45.412Z,1.50
2022-10-05T22:51:12.934Z,1.70
2022-10-05T22:53:40.371Z,1.50
2022-10-05T22:56:08.371Z,1.60
2022-10-05T22:58:36.130Z,1.70
2022-10-05T23:01:04.576Z,1.70
2022-10-05T23:03:32.478Z,1.67
2022-10-05T23:06:03.613Z,1.80
2022-10-05T23:08:31.878Z,1.77
2022-10-05T23:11:03.327Z,1.70
2022-10-05T23:13:31.078Z,1.70
2022-10-05T23:15:58.609Z,1.57
2022-10-05T23:18:26.507Z,1.47
2022-10-05T23:20:55.106Z,1.53
2022-10-05T23:23:24.095Z,1.70
2022-10-05T23:25:51.534Z,1.60
2022-10-05T23:28:18.997Z,1.60
2022-10-05T23:30:46.511Z,1.50
2022-10-05T23:33:13.961Z,1.53
2022-10-05T23:35:41.395Z,1.60
2022-10-05T23:38:08.841Z,1.40
2022-10-05T23:40:37.598Z,1.50
2022-10-05T23:43:05.234Z,1.67
2022-10-05T23:45:32.843Z,1.67
2022-10-05T23:48:00.326Z,1.50
2022-10-05T23:50:27.759Z,1.60
2022-10-05T23:52:55.190Z,1.40
2022-10-05T23:55:23.147Z,1.50
2022-10-05T23:57:51.936Z,1.40
